Šlapanice, Czech Republic

7:40 PM CEST on September 17, 2014 (GMT +0200)
Turany | Change Station
CLOSE
Current Station
Airport
Location: Brno,
Elevation: 807 ft
Nearby Weather Stations

Elev 807 ft 49.15 °N, 16.69 °E | Updated 10 minutes ago

Partly Cloudy
Partly Cloudy
63 °F
Feels Like 63 °F
N
7
Wind Variable Wind from ESE

Today
High -- | Low -- °F
--% Chance of Precip.
Yesterday
High -- | Low -- °F
Precip. -- in
6:32 AM 7:02 PM
Waning Crescent, 34% visible
Pressure 30.06 in
Visibility 6.2 miles
Clouds Few 4000 ft
Dew Point 55 °F
Humidity 77%
Rainfall 0.00 in
Snow Depth Not available.
UV 0 out of 12
Pollen Not available.
Air Quality Not available.
Flu Activity Not available.
METAR LKTB 171730Z 11006KT 9999 FEW040 17/13 Q1018 NOSIG

More Conditions Fewer Conditions

Pressure 30.06 in
Visibility 6.2 miles
Clouds Few 4000 ft
Dew Point 55 °F
Humidity 77%
Rainfall 0.00 in
Snow Depth Not available.
UV 0 out of 12
Pollen Not available.
Air Quality Not available.
Flu Activity Not available.
METAR LKTB 171730Z 11006KT 9999 FEW040 17/13 Q1018 NOSIG

More Conditions Fewer Conditions

10-Day Weather Forecast

Almanac

Astronomy

Sep. 17, 2014 Rise Set
Actual Time 6:32 AM CEST 7:02 PM CEST
Civil Twilight 6:00 AM CEST 7:34 PM CEST
Nautical Twilight 5:22 AM CEST 8:12 PM CEST
Astronomical Twilight 4:42 AM CEST 8:51 PM CEST
Moon No Moon Rise 3:20 PM CEST
Length of Visible Light 13h 34m
Length of Day
12h 30m
Tomorrow will be 3m 36s shorter.
Waning Crescent, 34% of the Moon is Illuminated
Today
Waning Crescent
Sep 24
New
Oct 1
First Quarter
Oct 8
Full
Oct 15
Last Quarter

Today's Extremes

Country Highs Country Lows

Community

WunderPhotos

Upload Photos

1,754,111 photos uploaded!

Nearby

Snow Depth

Not available.

Earthquake Activity

City Distance Mag. Time & Date
No recent earthquake activity has been reported nearby.
Minimum magnitude displayed is 2.5.

Coastal Water Temperatures

Place Temperature
No Stations Reporting

Nearby Weather Stations